Terminal Aerodrome Forecast
Issued by NWS

Home | Current Version | Previous Version | Text Only | Print | Product List | Glossary On
Versions: 1 2 3 4 5 6 7 8 9 10 11 12 13 14 15 16
000
FTUS46 KHNX 031730
TAFVIS
TAF
KVIS 031730Z 0318/0418 VRB04KT P6SM FEW250
     FM032200 31010KT P6SM VCSH FEW050 BKN120
     FM040500 VRB04KT P6SM FEW120=

USA.gov is the U.S. government's official web portal to all federal, state and local government web resources and services.